Time;durP1;ratioP1;P1;durP2;ratioP2;P2;SDS_P1;SDS_P2;PMS_P1;PMS_P2;Temp;Humidity;BMP_temperature;BMP_pressure;BME280_temperature;BME280_humidity;BME280_pressure;Samples;Min_cycle;Max_cycle;Signal;HPM_P1;HPM_P2
2022/05/09 00:00:13;;;;;;;3.88;1.73;;;20.70;42.00;;;;;;4947365;29;20511;-60
2022/05/09 00:02:39;;;;;;;3.65;1.50;;;20.70;42.00;;;;;;4948765;28;20240;-60
2022/05/09 00:05:06;;;;;;;3.85;1.48;;;20.70;42.00;;;;;;4947224;29;20138;-62
2022/05/09 00:07:31;;;;;;;2.88;1.23;;;20.70;42.10;;;;;;4946516;28;20046;-60
2022/05/09 00:09:57;;;;;;;5.22;2.00;;;20.70;42.10;;;;;;4946525;28;20027;-61
2022/05/09 00:12:23;;;;;;;4.22;1.80;;;20.70;42.00;;;;;;4947393;28;20047;-60
2022/05/09 00:14:48;;;;;;;4.20;1.88;;;20.70;42.10;;;;;;4947838;29;20039;-61
2022/05/09 00:17:14;;;;;;;6.18;1.70;;;20.60;42.00;;;;;;4947344;28;20138;-61
2022/05/09 00:19:40;;;;;;;4.22;1.73;;;20.70;42.10;;;;;;4959975;28;20053;-59
2022/05/09 00:22:05;;;;;;;4.72;1.73;;;20.70;42.00;;;;;;4946457;29;20047;-60
2022/05/09 00:24:31;;;;;;;3.60;1.50;;;20.60;42.00;;;;;;4948473;28;20379;-59
2022/05/09 00:26:57;;;;;;;4.68;1.90;;;20.60;42.00;;;;;;4946361;29;20039;-60
2022/05/09 00:29:23;;;;;;;5.18;1.73;;;20.60;42.00;;;;;;4946345;28;20035;-61
2022/05/09 00:31:51;;;;;;;4.13;1.50;;;20.70;42.00;;;;;;4947675;28;20484;-60
2022/05/09 00:34:19;;;;;;;4.22;1.90;;;20.60;42.00;;;;;;4945526;28;20082;-60
2022/05/09 00:36:46;;;;;;;3.55;1.27;;;20.60;41.90;;;;;;4946306;29;20043;-59
2022/05/09 00:39:13;;;;;;;5.40;1.67;;;20.60;41.90;;;;;;4947466;29;20376;-61
2022/05/09 00:41:41;;;;;;;5.03;2.10;;;20.60;42.00;;;;;;4946923;29;20043;-60
2022/05/09 00:44:15;;;;;;;3.92;1.50;;;20.60;41.90;;;;;;4946805;28;20067;-59
2022/05/09 00:46:43;;;;;;;4.22;1.60;;;20.60;41.90;;;;;;4945779;28;20039;-60
2022/05/09 00:49:18;;;;;;;3.80;1.50;;;20.60;41.90;;;;;;4947713;28;20129;-61
2022/05/09 00:52:10;;;;;;;6.53;1.85;;;20.60;41.90;;;;;;4946258;28;20511;-60
2022/05/09 00:54:45;;;;;;;4.45;2.00;;;20.60;41.80;;;;;;4939309;28;20186;-60
2022/05/09 00:57:17;;;;;;;4.00;1.70;;;20.60;41.90;;;;;;4946337;28;20058;-59
2022/05/09 00:59:43;;;;;;;3.13;1.67;;;20.60;41.90;;;;;;4938546;29;20535;-59
2022/05/09 01:02:10;;;;;;;4.55;1.75;;;20.60;41.90;;;;;;4944827;28;20062;-60
2022/05/09 01:04:45;;;;;;;4.57;1.60;;;20.60;41.90;;;;;;4945464;28;20527;-59
2022/05/09 01:07:11;;;;;;;5.53;1.60;;;20.60;41.90;;;;;;4946794;28;20403;-60
2022/05/09 01:09:36;;;;;;;4.95;1.85;;;20.60;41.90;;;;;;4947718;28;20137;-60
2022/05/09 01:12:03;;;;;;;3.28;1.60;;;20.50;41.80;;;;;;4945828;29;20526;-60
2022/05/09 01:14:31;;;;;;;3.80;1.98;;;20.50;41.70;;;;;;4946952;29;20823;-60
2022/05/09 01:16:58;;;;;;;2.58;1.38;;;20.50;41.70;;;;;;4945481;29;20035;-60
2022/05/09 01:19:30;;;;;;;5.15;2.10;;;20.50;41.80;;;;;;4947019;28;20042;-60
2022/05/09 01:21:57;;;;;;;5.72;2.15;;;20.60;41.80;;;;;;4946491;28;20129;-60
2022/05/09 01:24:25;;;;;;;3.80;1.40;;;20.50;41.70;;;;;;4947118;28;20150;-60
2022/05/09 01:26:52;;;;;;;3.67;1.75;;;20.50;41.80;;;;;;4946323;29;20077;-61
2022/05/09 01:29:35;;;;;;;4.70;1.65;;;20.50;41.80;;;;;;4946468;29;20530;-60
2022/05/09 01:32:02;;;;;;;2.63;1.40;;;20.50;41.70;;;;;;4945515;28;20058;-60
2022/05/09 01:34:30;;;;;;;3.75;1.70;;;20.50;41.70;;;;;;4945138;28;20047;-61
2022/05/09 01:37:00;;;;;;;4.85;1.92;;;20.50;41.80;;;;;;4944679;29;20047;-61
2022/05/09 01:39:26;;;;;;;4.57;1.77;;;20.50;41.60;;;;;;4945866;29;20070;-60
2022/05/09 01:41:52;;;;;;;5.00;1.73;;;20.50;41.70;;;;;;4945371;29;20078;-59
2022/05/09 01:44:18;;;;;;;4.07;1.80;;;20.50;41.60;;;;;;4946183;28;20055;-60
2022/05/09 01:49:31;;;;;;;3.30;1.80;;;20.50;41.60;;;;;;4952666;28;20596;-60
2022/05/09 01:52:05;;;;;;;4.88;1.80;;;20.50;41.60;;;;;;4952314;28;20121;-59
2022/05/09 01:54:32;;;;;;;4.15;1.58;;;20.50;41.60;;;;;;4952124;28;20042;-59
2022/05/09 01:56:57;;;;;;;4.22;1.70;;;20.50;41.60;;;;;;4951749;28;20043;-60
2022/05/09 01:59:23;;;;;;;3.60;1.60;;;20.50;41.60;;;;;;4952324;28;20424;-60
2022/05/09 02:01:55;;;;;;;2.05;1.35;;;20.50;41.60;;;;;;4943801;28;20034;-60
2022/05/09 02:04:22;;;;;;;3.50;1.80;;;20.50;41.50;;;;;;4962597;28;20058;-60
2022/05/09 02:06:48;;;;;;;5.07;2.00;;;20.50;41.50;;;;;;4949062;28;20067;-60
2022/05/09 02:09:13;;;;;;;3.47;2.28;;;20.50;41.60;;;;;;4948229;28;20130;-60
2022/05/09 02:11:39;;;;;;;4.40;1.70;;;20.50;41.50;;;;;;4951319;28;20049;-60
2022/05/09 02:14:05;;;;;;;4.55;1.92;;;20.50;41.60;;;;;;4950386;28;20043;-60
2022/05/09 02:16:31;;;;;;;4.07;1.63;;;20.50;41.50;;;;;;4952586;28;20042;-59
2022/05/09 02:18:57;;;;;;;3.00;1.80;;;20.50;41.50;;;;;;4950384;28;20077;-62
2022/05/09 02:21:23;;;;;;;3.38;1.60;;;20.40;41.40;;;;;;4948949;29;20503;-59
2022/05/09 02:23:49;;;;;;;4.32;1.92;;;20.50;41.50;;;;;;4951802;28;20035;-60
2022/05/09 02:26:14;;;;;;;4.55;1.83;;;20.40;41.40;;;;;;4953005;28;20118;-59
2022/05/09 02:28:40;;;;;;;2.78;1.52;;;20.50;41.40;;;;;;4949379;29;20456;-61
2022/05/09 02:31:06;;;;;;;3.70;1.75;;;20.50;41.40;;;;;;4950866;28;20454;-60
2022/05/09 02:33:32;;;;;;;4.25;1.73;;;20.40;41.30;;;;;;4951916;28;20043;-59
2022/05/09 02:35:57;;;;;;;3.95;1.77;;;20.40;41.30;;;;;;4953410;28;20830;-60
2022/05/09 02:38:24;;;;;;;4.30;1.80;;;20.40;41.30;;;;;;4950136;28;20049;-59
2022/05/09 02:40:51;;;;;;;5.03;1.77;;;20.40;41.30;;;;;;4951702;28;20043;-60
2022/05/09 02:43:17;;;;;;;4.40;1.73;;;20.40;41.30;;;;;;4951824;28;20090;-60
2022/05/09 02:45:43;;;;;;;4.70;1.60;;;20.40;41.30;;;;;;4951214;28;20051;-59
2022/05/09 02:48:10;;;;;;;3.47;1.90;;;20.40;41.30;;;;;;4955900;28;20494;-59
2022/05/09 02:50:36;;;;;;;4.85;2.28;;;20.40;41.30;;;;;;4952589;29;20050;-60
2022/05/09 02:53:02;;;;;;;4.80;1.63;;;20.40;41.30;;;;;;4951839;28;20122;-59
2022/05/09 02:55:31;;;;;;;3.88;1.90;;;20.40;41.30;;;;;;4950662;28;20673;-60
2022/05/09 02:57:57;;;;;;;4.30;1.90;;;20.40;41.20;;;;;;4948032;28;20054;-60
2022/05/09 03:00:25;;;;;;;4.47;1.90;;;20.40;41.30;;;;;;4949134;28;20393;-60
2022/05/09 03:05:38;;;;;;;4.05;1.88;;;20.40;41.20;;;;;;4948932;29;20122;-60
2022/05/09 03:08:04;;;;;;;5.22;1.58;;;20.40;41.20;;;;;;4948231;28;20722;-59
2022/05/09 03:10:31;;;;;;;2.97;1.65;;;20.30;41.10;;;;;;4946602;29;20126;-60
2022/05/09 03:12:59;;;;;;;4.90;1.67;;;20.40;41.20;;;;;;4949159;28;20403;-60
2022/05/09 03:15:26;;;;;;;4.65;1.90;;;20.30;41.10;;;;;;4947745;29;20047;-60
2022/05/09 03:17:52;;;;;;;4.93;2.05;;;20.40;41.20;;;;;;4948460;29;20047;-59
2022/05/09 03:20:17;;;;;;;3.63;1.90;;;20.30;41.10;;;;;;4947816;28;20039;-60
2022/05/09 03:22:43;;;;;;;4.13;2.00;;;20.30;41.10;;;;;;4948601;28;20054;-60
2022/05/09 03:25:08;;;;;;;2.95;1.63;;;20.30;41.00;;;;;;4947070;28;20050;-60
2022/05/09 03:27:34;;;;;;;5.93;2.17;;;20.30;41.10;;;;;;4948000;29;20051;-59
2022/05/09 03:30:00;;;;;;;4.10;2.00;;;20.30;41.00;;;;;;4948822;28;20387;-61
2022/05/09 03:32:26;;;;;;;3.40;1.58;;;20.30;41.10;;;;;;4948520;29;20051;-60
2022/05/09 03:34:51;;;;;;;5.22;1.98;;;20.40;41.10;;;;;;4946809;28;20419;-62
2022/05/09 03:37:17;;;;;;;3.60;1.83;;;20.30;41.00;;;;;;4947854;28;20109;-59
2022/05/09 03:39:42;;;;;;;4.13;1.70;;;20.30;41.00;;;;;;4947291;28;20049;-59
2022/05/09 03:42:08;;;;;;;4.45;1.67;;;20.30;41.00;;;;;;4948119;28;20062;-61
2022/05/09 03:44:33;;;;;;;4.45;1.77;;;20.30;41.00;;;;;;4946213;28;20039;-60
2022/05/09 03:46:59;;;;;;;3.35;2.25;;;20.30;41.00;;;;;;4962646;28;20126;-60
2022/05/09 03:49:25;;;;;;;3.95;1.77;;;20.30;41.00;;;;;;4948441;28;20062;-61
2022/05/09 03:51:50;;;;;;;6.53;1.77;;;20.30;41.00;;;;;;4946193;28;20071;-60
2022/05/09 03:54:16;;;;;;;3.80;1.92;;;20.30;41.00;;;;;;4947788;29;20047;-60
2022/05/09 03:56:42;;;;;;;4.35;1.55;;;20.30;41.10;;;;;;4947905;29;20046;-60
2022/05/09 03:59:08;;;;;;;3.92;2.03;;;20.30;41.00;;;;;;4946442;28;20042;-60
2022/05/09 04:01:34;;;;;;;3.72;1.80;;;20.30;41.00;;;;;;4943782;28;20082;-60
2022/05/09 04:04:00;;;;;;;3.72;1.75;;;20.30;41.00;;;;;;4942120;29;20099;-62
2022/05/09 04:06:26;;;;;;;4.43;1.70;;;20.30;41.00;;;;;;4944635;29;20047;-61
2022/05/09 04:08:52;;;;;;;4.28;1.88;;;20.30;41.00;;;;;;4946600;28;20059;-59
2022/05/09 04:11:17;;;;;;;4.00;1.95;;;20.30;41.00;;;;;;4947799;28;20110;-59
2022/05/09 04:13:43;;;;;;;3.83;1.83;;;20.30;41.00;;;;;;4947014;29;20027;-60
2022/05/09 04:18:56;;;;;;;3.88;1.60;;;20.30;41.00;;;;;;4945283;29;20404;-60
2022/05/09 04:21:22;;;;;;;4.57;1.75;;;20.30;41.00;;;;;;4942559;29;20400;-61
2022/05/09 04:23:48;;;;;;;4.97;1.90;;;20.20;40.90;;;;;;4946861;28;20047;-60
2022/05/09 04:26:15;;;;;;;4.53;1.95;;;20.20;41.00;;;;;;4947021;29;20050;-60
2022/05/09 04:28:40;;;;;;;4.45;1.90;;;20.20;41.00;;;;;;4945592;29;21739;-60
2022/05/09 04:31:06;;;;;;;3.65;1.85;;;20.20;41.00;;;;;;4947053;28;20050;-59
2022/05/09 04:33:31;;;;;;;4.00;1.70;;;20.20;41.00;;;;;;4946219;29;20196;-61
2022/05/09 04:35:58;;;;;;;3.35;1.80;;;20.20;40.90;;;;;;4946660;28;20105;-60
2022/05/09 04:38:24;;;;;;;4.68;2.20;;;20.20;41.00;;;;;;4948540;28;20082;-60
2022/05/09 04:40:54;;;;;;;4.13;1.90;;;20.20;41.00;;;;;;4947711;28;20041;-59
2022/05/09 04:43:23;;;;;;;3.65;1.90;;;20.20;40.90;;;;;;4947929;28;20086;-61
2022/05/09 04:45:49;;;;;;;3.58;1.80;;;20.20;41.00;;;;;;4945207;28;20039;-59
2022/05/09 04:48:16;;;;;;;5.82;1.98;;;20.20;41.70;;;;;;4943963;29;20035;-60
2022/05/09 04:50:42;;;;;;;2.50;1.70;;;20.20;41.00;;;;;;4946117;29;20078;-61
2022/05/09 04:53:07;;;;;;;3.17;1.83;;;20.20;40.90;;;;;;4946631;28;20424;-60
2022/05/09 04:55:33;;;;;;;4.50;2.00;;;20.20;41.00;;;;;;4944701;28;20047;-59
2022/05/09 04:57:59;;;;;;;3.80;1.88;;;20.20;41.00;;;;;;4945946;28;20066;-60
2022/05/09 05:00:26;;;;;;;4.60;1.98;;;20.20;41.00;;;;;;4947287;28;20466;-60
2022/05/09 05:02:53;;;;;;;4.05;1.77;;;20.20;41.00;;;;;;4945897;28;20157;-61
2022/05/09 05:05:19;;;;;;;4.47;1.95;;;20.20;41.00;;;;;;4951555;28;20074;-62
2022/05/09 05:07:44;;;;;;;4.90;1.90;;;20.20;41.00;;;;;;4945703;29;20059;-60
2022/05/09 05:10:11;;;;;;;4.10;1.55;;;20.20;41.00;;;;;;4946246;28;20118;-59
2022/05/09 05:12:37;;;;;;;5.18;1.80;;;20.20;41.10;;;;;;4946385;28;20043;-61
2022/05/09 05:15:04;;;;;;;4.57;1.98;;;20.20;41.10;;;;;;4946835;28;20519;-61
2022/05/09 05:17:29;;;;;;;4.05;1.77;;;20.20;41.20;;;;;;4946156;29;20523;-58
2022/05/09 05:19:55;;;;;;;6.32;1.95;;;20.20;41.20;;;;;;4944502;28;20137;-56
2022/05/09 05:22:21;;;;;;;4.65;1.83;;;20.20;41.60;;;;;;4945479;28;21013;-58
2022/05/09 05:24:49;;;;;;;3.08;1.85;;;20.20;41.60;;;;;;4938247;29;20161;-58
2022/05/09 05:27:14;;;;;;;4.43;1.60;;;20.20;41.60;;;;;;4942955;28;20093;-59
2022/05/09 05:29:41;;;;;;;4.70;2.00;;;20.20;41.70;;;;;;4944510;28;20036;-59
2022/05/09 05:32:14;;;;;;;6.28;2.40;;;20.20;41.70;;;;;;4942593;28;20047;-60
2022/05/09 05:34:40;;;;;;;5.78;2.70;;;20.20;41.60;;;;;;4943424;29;20051;-58
2022/05/09 05:37:05;;;;;;;6.93;2.60;;;20.20;41.40;;;;;;4944746;28;20066;-58
2022/05/09 05:39:34;;;;;;;6.47;3.10;;;20.20;41.30;;;;;;4945869;28;20122;-59
2022/05/09 05:41:59;;;;;;;8.15;3.20;;;20.20;41.10;;;;;;4946499;28;20122;-59
2022/05/09 05:44:25;;;;;;;6.15;2.75;;;20.20;41.10;;;;;;4945622;28;20632;-58
2022/05/09 05:46:50;;;;;;;3.92;1.90;;;20.30;41.60;;;;;;4943966;29;20344;-61
2022/05/09 05:49:16;;;;;;;5.43;2.55;;;20.30;41.80;;;;;;4944669;28;20043;-62
2022/05/09 05:51:41;;;;;;;4.78;2.30;;;20.30;41.80;;;;;;4946595;28;20126;-64
2022/05/09 05:54:07;;;;;;;5.05;2.42;;;20.30;41.80;;;;;;4941766;28;20542;-62
2022/05/09 05:56:36;;;;;;;8.75;2.53;;;20.30;41.80;;;;;;4940955;28;20488;-61
2022/05/09 05:59:01;;;;;;;5.63;2.50;;;20.40;42.00;;;;;;4931572;29;20043;-60
2022/05/09 06:01:27;;;;;;;5.30;2.42;;;20.40;42.10;;;;;;4939511;28;20361;-60
2022/05/09 06:03:52;;;;;;;6.03;2.22;;;20.40;42.10;;;;;;4944480;28;20479;-62
2022/05/09 06:06:18;;;;;;;5.10;2.13;;;20.40;42.20;;;;;;4943305;28;20110;-60
2022/05/09 06:08:45;;;;;;;7.40;2.33;;;20.40;42.20;;;;;;4945129;29;20043;-60
2022/05/09 06:11:12;;;;;;;6.63;2.10;;;20.40;42.10;;;;;;4944305;28;20043;-60
2022/05/09 06:13:38;;;;;;;4.90;2.10;;;20.50;42.20;;;;;;4943352;28;20412;-58
2022/05/09 06:16:04;;;;;;;5.20;2.25;;;20.50;42.20;;;;;;4943385;29;20050;-58
2022/05/09 06:18:30;;;;;;;4.72;2.40;;;20.50;42.20;;;;;;4945246;28;20118;-58
2022/05/09 06:20:55;;;;;;;5.70;2.42;;;20.50;42.20;;;;;;4942554;29;20054;-59
2022/05/09 06:23:22;;;;;;;3.95;2.22;;;20.50;42.30;;;;;;4945782;28;20049;-59
2022/05/09 06:25:48;;;;;;;4.28;2.47;;;20.50;42.30;;;;;;4942004;29;20123;-58
2022/05/09 06:28:15;;;;;;;4.95;2.10;;;20.50;42.10;;;;;;4943095;28;20115;-58
2022/05/09 06:30:42;;;;;;;6.60;2.30;;;20.50;42.20;;;;;;4943616;28;20127;-58
2022/05/09 06:33:08;;;;;;;6.53;2.53;;;20.50;42.20;;;;;;4945768;28;20150;-59
2022/05/09 06:35:39;;;;;;;4.90;1.85;;;20.50;42.20;;;;;;4943852;29;20054;-60
2022/05/09 06:38:06;;;;;;;5.82;2.25;;;20.50;42.30;;;;;;4945911;29;20073;-59
2022/05/09 06:40:33;;;;;;;4.60;1.90;;;20.50;42.20;;;;;;4943434;28;21950;-59
2022/05/09 06:42:59;;;;;;;7.43;2.20;;;20.50;42.30;;;;;;4945807;29;20083;-58
2022/05/09 06:45:26;;;;;;;5.88;1.98;;;20.50;42.30;;;;;;4945688;29;20764;-63
2022/05/09 06:47:54;;;;;;;4.85;2.10;;;20.50;42.40;;;;;;4947840;28;20126;-60
2022/05/09 06:50:22;;;;;;;5.20;2.00;;;20.50;42.40;;;;;;4943995;29;20089;-58
2022/05/09 06:52:47;;;;;;;5.40;2.03;;;20.50;42.40;;;;;;4942769;28;20490;-59
2022/05/09 06:55:14;;;;;;;5.78;2.00;;;20.50;42.40;;;;;;4944694;29;20039;-60
2022/05/09 06:57:42;;;;;;;2.75;1.80;;;20.50;42.40;;;;;;4944970;28;20097;-59
2022/05/09 07:00:11;;;;;;;6.38;2.30;;;20.50;42.50;;;;;;4945383;28;20039;-59
2022/05/09 07:02:37;;;;;;;4.35;1.98;;;20.50;42.50;;;;;;4945366;28;20047;-61
2022/05/09 07:05:04;;;;;;;7.32;2.50;;;20.50;42.60;;;;;;4946258;28;20031;-59
2022/05/09 07:07:30;;;;;;;4.30;2.10;;;20.50;42.50;;;;;;4946055;28;20130;-60
2022/05/09 07:09:55;;;;;;;3.15;1.75;;;20.50;42.50;;;;;;4948106;28;20133;-59
2022/05/09 07:12:21;;;;;;;4.88;2.10;;;20.50;42.50;;;;;;4945310;29;20059;-59
2022/05/09 07:14:46;;;;;;;3.17;1.80;;;20.50;42.50;;;;;;4946050;28;20126;-59
2022/05/09 07:17:12;;;;;;;5.50;2.00;;;20.50;42.60;;;;;;4944570;28;20047;-59
2022/05/09 07:19:37;;;;;;;4.13;1.70;;;20.50;42.60;;;;;;4944823;28;20047;-59
2022/05/09 07:22:03;;;;;;;4.07;1.73;;;20.50;42.60;;;;;;4943259;28;20399;-59
2022/05/09 07:24:29;;;;;;;3.95;1.75;;;20.60;42.70;;;;;;4943773;28;20492;-60
2022/05/09 07:26:54;;;;;;;3.17;1.70;;;20.50;42.80;;;;;;4945535;28;20118;-58
2022/05/09 07:29:20;;;;;;;4.72;1.67;;;20.50;42.70;;;;;;4945414;29;20502;-59
2022/05/09 07:31:46;;;;;;;3.47;1.77;;;20.50;42.70;;;;;;4944220;28;21071;-58
2022/05/09 07:34:11;;;;;;;4.32;1.98;;;20.50;42.70;;;;;;4945911;29;20063;-60
2022/05/09 07:36:37;;;;;;;5.25;1.98;;;20.50;42.80;;;;;;4947399;28;20058;-59
2022/05/09 07:39:03;;;;;;;3.70;1.65;;;20.60;42.80;;;;;;4948034;28;20043;-60
2022/05/09 07:41:28;;;;;;;3.85;1.80;;;20.50;42.80;;;;;;4947852;28;20043;-59
2022/05/09 07:43:54;;;;;;;3.83;1.83;;;20.50;42.70;;;;;;4944436;28;20538;-59
2022/05/09 07:46:19;;;;;;;5.78;1.88;;;20.50;42.80;;;;;;4945966;28;20038;-61
2022/05/09 07:48:46;;;;;;;5.40;1.83;;;20.60;42.90;;;;;;4944789;28;20031;-58
2022/05/09 07:51:14;;;;;;;4.43;1.60;;;20.50;42.90;;;;;;4945561;28;20518;-59
2022/05/09 07:53:40;;;;;;;3.72;1.80;;;20.60;43.00;;;;;;4946199;29;20053;-62
2022/05/09 07:56:06;;;;;;;4.47;1.60;;;20.60;43.00;;;;;;4945870;28;20039;-63
2022/05/09 07:58:32;;;;;;;2.85;1.70;;;20.60;43.00;;;;;;4948142;29;20087;-63
2022/05/09 08:01:02;;;;;;;4.57;1.95;;;20.60;43.20;;;;;;4948907;28;20039;-61
2022/05/09 08:03:30;;;;;;;5.63;2.38;;;20.60;43.40;;;;;;4948242;29;20085;-61
2022/05/09 08:05:58;;;;;;;4.13;2.15;;;20.60;43.70;;;;;;4947515;28;20043;-61
2022/05/09 08:08:24;;;;;;;5.07;2.00;;;20.60;44.00;;;;;;4947498;29;20043;-62
2022/05/09 08:10:49;;;;;;;3.70;2.00;;;20.60;44.00;;;;;;4946920;28;20387;-59
2022/05/09 08:13:18;;;;;;;2.78;1.55;;;20.60;44.00;;;;;;4947168;29;20403;-59
2022/05/09 08:15:46;;;;;;;3.83;1.90;;;20.60;44.00;;;;;;4946750;29;20074;-61
2022/05/09 08:18:13;;;;;;;3.60;1.65;;;20.60;43.90;;;;;;4945832;28;20642;-61
2022/05/09 08:20:40;;;;;;;6.40;2.13;;;20.60;43.90;;;;;;4948113;29;20074;-63
2022/05/09 08:23:10;;;;;;;5.20;1.92;;;20.60;43.80;;;;;;4946692;28;20047;-60
2022/05/09 08:25:38;;;;;;;5.17;2.33;;;20.60;43.80;;;;;;4946673;28;20043;-60
2022/05/09 08:28:05;;;;;;;4.57;2.20;;;20.60;43.70;;;;;;4947055;28;21139;-61
2022/05/09 08:30:34;;;;;;;5.50;2.33;;;20.70;43.80;;;;;;4945355;29;20121;-60
2022/05/09 08:33:03;;;;;;;5.32;2.10;;;20.60;43.80;;;;;;4944714;28;20046;-60
2022/05/09 08:35:29;;;;;;;6.78;2.20;;;20.60;43.90;;;;;;4946041;28;20054;-60
2022/05/09 08:37:55;;;;;;;5.35;1.60;;;20.60;43.90;;;;;;4944549;28;20105;-62
2022/05/09 08:40:31;;;;;;;4.60;1.90;;;20.60;43.90;;;;;;4943125;28;20047;-61
2022/05/09 08:43:16;;;;;;;6.13;2.20;;;20.70;44.00;;;;;;4945909;29;20051;-60
2022/05/09 08:45:50;;;;;;;5.03;2.03;;;20.70;44.00;;;;;;4945625;29;20047;-60
2022/05/09 08:48:35;;;;;;;3.10;2.00;;;20.60;44.00;;;;;;4943874;29;20055;-60
2022/05/09 08:51:33;;;;;;;3.40;2.15;;;20.60;44.00;;;;;;4947619;28;20444;-60
2022/05/09 08:54:03;;;;;;;5.57;1.92;;;20.70;44.10;;;;;;4946599;29;20495;-61
2022/05/09 08:56:29;;;;;;;4.75;2.08;;;20.60;44.10;;;;;;4945497;28;20427;-61
2022/05/09 08:59:00;;;;;;;6.70;2.30;;;20.60;44.10;;;;;;4945324;28;20043;-61
2022/05/09 09:01:49;;;;;;;4.30;1.70;;;20.60;44.30;;;;;;4943489;29;20046;-60
2022/05/09 09:04:22;;;;;;;3.25;1.85;;;20.60;44.20;;;;;;4946219;28;20466;-61
2022/05/09 09:07:15;;;;;;;3.83;2.00;;;20.60;44.30;;;;;;4943915;28;20520;-61
2022/05/09 09:10:12;;;;;;;5.65;2.10;;;20.70;44.40;;;;;;4943257;29;20456;-60
2022/05/09 09:12:48;;;;;;;2.58;1.63;;;20.60;44.20;;;;;;4946320;29;20054;-61
2022/05/09 09:15:29;;;;;;;5.13;2.08;;;20.70;44.30;;;;;;4945376;28;20145;-60
2022/05/09 09:18:26;;;;;;;4.53;2.10;;;20.70;44.10;;;;;;4945467;29;20138;-62
2022/05/09 09:21:04;;;;;;;3.42;1.90;;;20.70;44.10;;;;;;4945723;29;20051;-62
2022/05/09 09:23:39;;;;;;;4.30;1.60;;;20.60;44.00;;;;;;4946641;29;20475;-61
2022/05/09 09:26:35;;;;;;;4.25;1.85;;;20.70;44.10;;;;;;4947761;29;20432;-61
2022/05/09 09:29:15;;;;;;;3.10;1.60;;;20.60;43.90;;;;;;4945893;29;20043;-60
2022/05/09 09:31:47;;;;;;;2.90;1.90;;;20.70;44.00;;;;;;4946843;29;20732;-60
2022/05/09 09:34:32;;;;;;;2.70;1.50;;;20.70;43.80;;;;;;4946242;29;20059;-60
2022/05/09 09:37:09;;;;;;;3.38;1.52;;;20.70;43.80;;;;;;4946194;29;20403;-60
2022/05/09 09:39:34;;;;;;;3.35;2.15;;;20.60;43.70;;;;;;4946967;29;20355;-60
2022/05/09 09:42:00;;;;;;;5.20;1.77;;;20.60;43.80;;;;;;4946203;29;20044;-60
2022/05/09 09:44:27;;;;;;;3.65;1.67;;;20.70;43.80;;;;;;4943273;28;20570;-60
2022/05/09 09:47:19;;;;;;;3.08;1.70;;;20.70;43.80;;;;;;4944236;29;20035;-60
2022/05/09 09:49:48;;;;;;;3.10;1.50;;;20.70;43.80;;;;;;4945209;29;20039;-60
2022/05/09 09:52:18;;;;;;;5.10;1.70;;;20.60;43.80;;;;;;4946177;29;20648;-60
2022/05/09 09:54:54;;;;;;;4.00;1.90;;;20.60;43.90;;;;;;4944210;29;20054;-60
2022/05/09 09:57:23;;;;;;;4.57;1.75;;;20.70;44.00;;;;;;4945355;28;20078;-61
2022/05/09 09:59:50;;;;;;;4.35;1.60;;;20.70;44.10;;;;;;4942871;29;20039;-62
2022/05/09 10:02:25;;;;;;;4.85;1.88;;;20.60;44.00;;;;;;4943703;29;20462;-61
2022/05/09 10:04:50;;;;;;;5.00;1.75;;;20.70;44.00;;;;;;4945462;28;20039;-60
2022/05/09 10:07:34;;;;;;;3.35;1.55;;;20.60;43.90;;;;;;4946897;28;20495;-61
2022/05/09 10:10:36;;;;;;;5.65;1.45;;;20.60;43.90;;;;;;4946722;28;20280;-61
2022/05/09 10:13:18;;;;;;;4.32;1.70;;;20.70;44.00;;;;;;4926746;28;20081;-61
2022/05/09 10:15:45;;;;;;;2.17;1.67;;;20.70;43.90;;;;;;4945784;28;20035;-60
2022/05/09 10:18:23;;;;;;;4.00;1.58;;;20.60;43.90;;;;;;4948079;29;20058;-61
2022/05/09 10:20:51;;;;;;;3.40;2.00;;;20.60;43.80;;;;;;4948069;29;20038;-60
2022/05/09 10:26:22;;;;;;;2.33;1.50;;;20.70;43.90;;;;;;4937577;28;20053;-62
2022/05/09 10:29:14;;;;;;;4.53;1.70;;;20.60;43.90;;;;;;4947206;29;20138;-60
2022/05/09 10:31:52;;;;;;;3.90;1.70;;;20.70;44.00;;;;;;4947604;29;20043;-61
2022/05/09 10:34:26;;;;;;;4.00;1.80;;;20.60;44.00;;;;;;4946995;28;20086;-61
2022/05/09 10:37:02;;;;;;;3.03;1.50;;;20.60;44.00;;;;;;4947496;29;20085;-61
2022/05/09 10:39:38;;;;;;;3.85;1.60;;;20.60;44.10;;;;;;4947971;28;20042;-61
2022/05/09 10:42:10;;;;;;;2.95;1.63;;;20.60;44.00;;;;;;4950138;28;20050;-60
2022/05/09 10:45:01;;;;;;;3.40;1.48;;;20.60;44.10;;;;;;4949637;29;20035;-61
2022/05/09 10:47:35;;;;;;;6.80;2.17;;;20.60;44.00;;;;;;4949276;29;20046;-61
2022/05/09 10:50:45;;;;;;;4.28;1.70;;;20.60;44.10;;;;;;4946478;29;20050;-61
2022/05/09 10:53:22;;;;;;;3.75;1.65;;;20.70;44.00;;;;;;4900795;29;20040;-60
2022/05/09 10:56:07;;;;;;;4.03;1.70;;;20.70;44.10;;;;;;4944593;28;20940;-61
2022/05/09 10:59:03;;;;;;;3.40;1.42;;;20.70;44.10;;;;;;4942594;29;20062;-61
2022/05/09 11:01:33;;;;;;;4.45;1.60;;;20.70;44.20;;;;;;4946560;28;20043;-61
2022/05/09 11:04:00;;;;;;;6.05;2.00;;;20.70;44.30;;;;;;4948546;28;20447;-61
2022/05/09 11:06:47;;;;;;;3.00;1.60;;;20.60;44.20;;;;;;4949604;28;20035;-61
2022/05/09 11:09:46;;;;;;;5.07;1.50;;;20.60;44.30;;;;;;4947952;29;20062;-60
2022/05/09 11:12:41;;;;;;;5.28;1.60;;;20.70;44.40;;;;;;4949596;29;20042;-61
2022/05/09 11:15:48;;;;;;;3.08;1.65;;;20.70;44.40;;;;;;4948009;29;20074;-61
2022/05/09 11:18:33;;;;;;;3.28;1.55;;;20.60;44.30;;;;;;4941618;28;20146;-60
2022/05/09 11:21:08;;;;;;;3.72;1.40;;;20.60;44.30;;;;;;4948963;28;20047;-61
2022/05/09 11:23:48;;;;;;;3.63;1.70;;;20.60;44.60;;;;;;4948765;29;20083;-61
2022/05/09 11:26:43;;;;;;;3.95;1.73;;;20.60;44.30;;;;;;4948149;29;20587;-62
2022/05/09 11:29:35;;;;;;;4.78;2.10;;;20.70;44.10;;;;;;4938429;29;20078;-61
2022/05/09 11:32:13;;;;;;;4.47;1.70;;;20.70;44.10;;;;;;4948812;28;20043;-60
2022/05/09 11:35:02;;;;;;;4.13;1.52;;;20.60;44.10;;;;;;4949087;29;20062;-60
2022/05/09 11:37:56;;;;;;;4.40;1.63;;;20.70;44.10;;;;;;4947871;29;20050;-61
2022/05/09 11:40:40;;;;;;;2.03;1.20;;;20.70;44.00;;;;;;4949630;29;20185;-61
2022/05/09 11:43:27;;;;;;;3.60;1.52;;;20.70;43.90;;;;;;4948420;29;20062;-61
2022/05/09 11:46:20;;;;;;;4.55;1.75;;;20.70;43.80;;;;;;4948438;28;20031;-61
2022/05/09 11:49:16;;;;;;;4.05;1.70;;;20.70;43.80;;;;;;4948179;29;20054;-61
2022/05/09 11:51:52;;;;;;;2.30;1.60;;;20.70;43.80;;;;;;4946029;29;20032;-61
2022/05/09 11:54:41;;;;;;;2.72;1.50;;;20.70;43.80;;;;;;4945840;28;20047;-60
2022/05/09 11:57:25;;;;;;;5.38;1.92;;;20.70;43.70;;;;;;4947212;28;20784;-59
2022/05/09 11:59:54;;;;;;;2.53;1.45;;;20.70;43.80;;;;;;4943930;29;20043;-60
2022/05/09 12:02:38;;;;;;;3.53;1.48;;;20.70;43.90;;;;;;4947021;28;20057;-60
2022/05/09 12:05:25;;;;;;;4.07;1.92;;;20.70;44.10;;;;;;4946129;28;20514;-62
2022/05/09 12:08:12;;;;;;;5.18;2.05;;;20.70;44.20;;;;;;4945980;29;20035;-59
2022/05/09 12:10:40;;;;;;;3.88;1.65;;;20.70;44.10;;;;;;4945025;28;20035;-60
2022/05/09 12:13:34;;;;;;;2.53;1.17;;;20.70;44.20;;;;;;4946989;28;20035;-60
2022/05/09 12:16:00;;;;;;;3.70;1.52;;;20.70;44.10;;;;;;4938909;29;20051;-61
2022/05/09 12:18:48;;;;;;;2.97;1.30;;;20.70;43.70;;;;;;4946626;29;20545;-59
2022/05/09 12:21:21;;;;;;;3.88;1.60;;;20.70;43.80;;;;;;4940960;28;20423;-59
2022/05/09 12:23:47;;;;;;;3.85;1.63;;;20.70;43.70;;;;;;4958458;28;20415;-60
2022/05/09 12:26:49;;;;;;;3.38;1.52;;;20.70;43.80;;;;;;4946942;28;20047;-60
2022/05/09 12:29:16;;;;;;;3.47;1.10;;;20.70;43.90;;;;;;4923270;28;20039;-59
2022/05/09 12:31:46;;;;;;;2.72;1.70;;;20.70;44.00;;;;;;4946102;28;20129;-61
2022/05/09 12:34:13;;;;;;;4.25;1.23;;;20.70;44.00;;;;;;4945808;29;20047;-60
2022/05/09 12:36:38;;;;;;;4.05;1.58;;;20.70;44.40;;;;;;4947195;29;20043;-60
2022/05/09 12:39:24;;;;;;;4.45;1.70;;;20.70;44.30;;;;;;4944225;28;20039;-59
2022/05/09 12:41:54;;;;;;;3.78;1.70;;;20.80;44.20;;;;;;4946013;29;20047;-62
2022/05/09 12:44:40;;;;;;;5.22;1.67;;;20.70;44.10;;;;;;4945883;29;20605;-61
2022/05/09 12:47:11;;;;;;;7.13;1.90;;;20.70;43.50;;;;;;4941279;28;20043;-60
2022/05/09 12:49:49;;;;;;;6.38;2.22;;;20.80;42.20;;;;;;4946963;29;20094;-59
2022/05/09 12:52:25;;;;;;;5.53;2.28;;;20.70;41.40;;;;;;4944199;29;20047;-58
2022/05/09 12:57:40;;;;;;;4.63;2.10;;;20.80;41.10;;;;;;4945052;28;20050;-59
2022/05/09 13:00:17;;;;;;;6.03;2.17;;;20.80;41.20;;;;;;4944793;28;20391;-59
2022/05/09 13:02:43;;;;;;;3.63;1.98;;;20.80;41.10;;;;;;4944613;29;20051;-60
2022/05/09 13:05:12;;;;;;;3.38;1.90;;;20.80;41.60;;;;;;4940129;28;20496;-60
2022/05/09 13:07:58;;;;;;;5.20;2.30;;;20.80;41.60;;;;;;4944395;29;20134;-61
2022/05/09 13:10:25;;;;;;;3.65;1.83;;;20.80;41.50;;;;;;4946479;29;20035;-60
2022/05/09 13:12:57;;;;;;;5.15;1.92;;;20.80;41.70;;;;;;4945885;29;20047;-59
2022/05/09 13:15:23;;;;;;;9.93;2.50;;;20.80;41.80;;;;;;4945234;29;20043;-61
2022/05/09 13:17:59;;;;;;;4.97;2.10;;;20.80;41.70;;;;;;4947010;28;20039;-59
2022/05/09 13:20:28;;;;;;;5.47;1.70;;;20.80;41.60;;;;;;4945468;29;20456;-59